createdAt,value
2022-09-26T00:03:50.688Z,152405.94
2022-09-26T00:09:59.026Z,152389.19
2022-09-26T00:12:26.743Z,152400.81
2022-09-26T00:14:54.550Z,152393.06
2022-09-26T00:17:22.258Z,152402.09
2022-09-26T00:19:51.428Z,152420.16
2022-09-26T00:22:19.123Z,152422.72
2022-09-26T00:24:46.862Z,152411.13
2022-09-26T00:27:14.617Z,152416.28
2022-09-26T00:29:42.421Z,152407.25
2022-09-26T00:32:10.212Z,152387.88
2022-09-26T00:34:38.760Z,152403.41
2022-09-26T00:37:07.885Z,152405.94
2022-09-26T00:39:35.684Z,152411.13
2022-09-26T00:42:03.432Z,152412.44
2022-09-26T00:44:47.452Z,152409.84
2022-09-26T00:47:47.932Z,152418.88
2022-09-26T00:50:21.297Z,152412.44
2022-09-26T00:52:55.102Z,152381.44
2022-09-26T00:55:25.989Z,152402.09
2022-09-26T00:57:58.921Z,152403.41
2022-09-26T01:00:27.345Z,152409.84
2022-09-26T01:02:55.505Z,152411.13
2022-09-26T01:05:25.028Z,152412.44
2022-09-26T01:07:57.141Z,152393.06
2022-09-26T01:10:25.288Z,152387.88
2022-09-26T01:12:53.462Z,152425.31
2022-09-26T01:15:21.247Z,152420.16
2022-09-26T01:17:49.036Z,152418.88
2022-09-26T01:20:25.798Z,152435.66
2022-09-26T01:23:28.323Z,152444.69
2022-09-26T01:26:27.908Z,152442.09
2022-09-26T01:29:14.884Z,152445.97
2022-09-26T01:32:10.808Z,152436.94
2022-09-26T01:34:50.994Z,152486.00
2022-09-26T01:37:30.958Z,152501.47
2022-09-26T01:40:07.137Z,152501.47
2022-09-26T01:42:43.204Z,152484.72
2022-09-26T01:45:18.388Z,152504.06
2022-09-26T01:47:53.816Z,152540.22
2022-09-26T01:50:27.569Z,152527.28
2022-09-26T01:53:02.070Z,152526.03
2022-09-26T01:55:34.689Z,152531.19
2022-09-26T01:58:07.758Z,152549.25
2022-09-26T02:00:37.446Z,152514.41
2022-09-26T02:03:12.887Z,152555.72
2022-09-26T02:05:45.331Z,152562.16
2022-09-26T02:08:17.357Z,152544.09
2022-09-26T02:10:50.158Z,152562.16
2022-09-26T02:13:21.336Z,152594.47
2022-09-26T02:15:54.240Z,152607.38
2022-09-26T02:18:30.771Z,152617.72
2022-09-26T02:21:03.418Z,152622.84
2022-09-26T02:23:31.202Z,152638.38
2022-09-26T02:26:00.013Z,152635.78
2022-09-26T02:28:28.502Z,152651.28
2022-09-26T02:30:56.884Z,152630.63
2022-09-26T02:33:26.288Z,152646.09
2022-09-26T02:35:57.502Z,152639.66
2022-09-26T02:38:28.600Z,152629.34
2022-09-26T02:41:02.140Z,152655.19
2022-09-26T02:43:45.403Z,152640.97
2022-09-26T02:46:30.293Z,152642.25
2022-09-26T02:49:12.121Z,152666.81
2022-09-26T02:51:57.577Z,152651.28
2022-09-26T02:54:32.496Z,152657.72
2022-09-26T02:57:22.050Z,152664.22
2022-09-26T02:59:59.751Z,152651.28
2022-09-26T03:02:35.358Z,152670.66
2022-09-26T03:05:09.734Z,152678.44
2022-09-26T03:07:42.672Z,152662.91
2022-09-26T03:10:13.044Z,152691.31
2022-09-26T03:12:44.372Z,152691.31
2022-09-26T03:15:13.912Z,152669.34
2022-09-26T03:17:46.058Z,152709.41
2022-09-26T03:20:17.142Z,152715.91
2022-09-26T03:22:46.067Z,152730.06
2022-09-26T03:25:18.550Z,152708.13
2022-09-26T03:27:47.871Z,152686.16
2022-09-26T03:30:17.828Z,152717.16
2022-09-26T03:32:45.620Z,152701.69
2022-09-26T03:35:13.454Z,152713.31
2022-09-26T03:37:42.735Z,152691.31
2022-09-26T03:40:13.172Z,152687.47
2022-09-26T03:42:41.419Z,152692.59
2022-09-26T03:45:11.466Z,152702.94
2022-09-26T03:47:39.460Z,152712.00
2022-09-26T03:50:07.924Z,152705.53
2022-09-26T03:52:36.494Z,152670.66
2022-09-26T03:55:06.573Z,152688.75
2022-09-26T03:57:34.300Z,152722.34
2022-09-26T04:00:02.161Z,152719.75
2022-09-26T04:02:30.022Z,152709.41
2022-09-26T04:04:57.785Z,152679.72
2022-09-26T04:07:25.566Z,152677.13
2022-09-26T04:09:53.488Z,152700.38
2022-09-26T04:12:22.575Z,152700.38
2022-09-26T04:14:50.486Z,152705.53
2022-09-26T04:17:18.803Z,152705.53
2022-09-26T04:19:46.622Z,152686.16
2022-09-26T04:22:14.336Z,152704.22
2022-09-26T04:24:42.111Z,152677.13
2022-09-26T04:27:10.292Z,152666.81
2022-09-26T04:29:39.492Z,152664.22
2022-09-26T04:32:07.332Z,152678.44
2022-09-26T04:34:35.076Z,152687.47
2022-09-26T04:37:02.876Z,152668.06
2022-09-26T04:39:30.657Z,152669.34
2022-09-26T04:41:58.483Z,152643.56
2022-09-26T04:44:26.332Z,152678.44
2022-09-26T04:46:55.453Z,152673.25
2022-09-26T04:49:23.676Z,152686.16
2022-09-26T04:51:52.068Z,152678.44
2022-09-26T04:54:20.471Z,152682.28
2022-09-26T04:56:48.223Z,152678.44
2022-09-26T04:59:16.079Z,152657.72
2022-09-26T05:01:43.973Z,152652.59
2022-09-26T05:04:13.470Z,152642.25
2022-09-26T05:06:41.447Z,152659.03
2022-09-26T05:09:09.312Z,152646.09
2022-09-26T05:11:37.089Z,152651.28
2022-09-26T05:14:04.873Z,152651.28
2022-09-26T05:16:32.788Z,152662.91
2022-09-26T05:19:00.631Z,152633.22
2022-09-26T05:21:29.778Z,152619.00
2022-09-26T05:24:15.648Z,152651.28
2022-09-26T05:26:47.243Z,152650.00
2022-09-26T05:29:16.261Z,152640.97
2022-09-26T05:31:44.105Z,152630.63
2022-09-26T05:34:19.198Z,152628.03
2022-09-26T05:36:49.020Z,152613.81
2022-09-26T05:39:35.922Z,152643.56
2022-09-26T05:42:07.479Z,152643.56
2022-09-26T05:44:35.343Z,152634.47
2022-09-26T05:47:03.118Z,152621.59
2022-09-26T05:49:32.876Z,152619.00
2022-09-26T05:52:03.220Z,152648.69
2022-09-26T05:54:31.091Z,152631.94
2022-09-26T05:56:58.836Z,152637.06
2022-09-26T05:59:26.852Z,152666.81
2022-09-26T06:01:54.953Z,152669.34
2022-09-26T06:04:22.690Z,152661.63
2022-09-26T06:06:51.292Z,152682.28
2022-09-26T06:09:20.418Z,152679.72
2022-09-26T06:11:48.198Z,152692.59
2022-09-26T06:14:16.063Z,152700.38
2022-09-26T06:16:43.901Z,152724.94
2022-09-26T06:19:11.710Z,152702.94
2022-09-26T06:21:40.276Z,152728.78
2022-09-26T06:24:08.547Z,152741.69
2022-09-26T06:26:38.164Z,152752.06
2022-09-26T06:29:07.531Z,152743.00
2022-09-26T06:31:35.419Z,152737.84
2022-09-26T06:34:03.369Z,152731.38
2022-09-26T06:36:31.557Z,152767.53
2022-09-26T06:38:59.305Z,152772.72
2022-09-26T06:41:27.452Z,152793.38
2022-09-26T06:43:56.938Z,152786.94
2022-09-26T06:46:24.764Z,152802.44
2022-09-26T06:48:52.536Z,152790.78
2022-09-26T06:51:20.624Z,152811.56
2022-09-26T06:53:48.381Z,152829.63
2022-09-26T06:56:16.226Z,152827.06
2022-09-26T06:58:44.010Z,152805.00
2022-09-26T07:01:14.549Z,152816.69
2022-09-26T07:03:45.607Z,152806.34
2022-09-26T07:06:14.331Z,152852.91
2022-09-26T07:09:12.719Z,152808.97
2022-09-26T07:11:50.367Z,152788.25
2022-09-26T07:14:18.242Z,152820.59
2022-09-26T07:16:49.407Z,152828.31
2022-09-26T07:19:17.266Z,152821.88
2022-09-26T07:21:45.305Z,152829.63
2022-09-26T07:24:14.265Z,152852.91
2022-09-26T07:26:42.157Z,152845.13
2022-09-26T07:29:09.987Z,152856.75
2022-09-26T07:31:38.159Z,152872.31
2022-09-26T07:34:08.617Z,152883.94
2022-09-26T07:36:36.490Z,152903.28
2022-09-26T07:39:04.292Z,152883.94
2022-09-26T07:41:32.110Z,152878.75
2022-09-26T07:47:05.375Z,152846.44
2022-09-26T07:49:51.938Z,152883.94
2022-09-26T07:52:20.660Z,152903.28
2022-09-26T07:54:48.449Z,152883.94
2022-09-26T07:57:17.088Z,152873.56
2022-09-26T07:59:45.786Z,152892.97
2022-09-26T08:02:22.434Z,152882.63
2022-09-26T08:04:57.630Z,152883.94
2022-09-26T08:07:28.146Z,152883.94
2022-09-26T08:09:55.975Z,152874.84
2022-09-26T08:12:24.208Z,152878.75
2022-09-26T08:14:53.019Z,152900.69
2022-09-26T08:17:21.636Z,152909.75
2022-09-26T08:19:49.459Z,152887.78
2022-09-26T08:22:18.579Z,152889.06
2022-09-26T08:24:49.764Z,152887.78
2022-09-26T08:27:18.046Z,152850.31
2022-09-26T08:29:49.495Z,152883.94
2022-09-26T08:32:17.628Z,152864.53
2022-09-26T08:34:46.032Z,152876.16
2022-09-26T08:37:13.870Z,152877.44
2022-09-26T08:39:43.043Z,152872.31
2022-09-26T08:42:28.800Z,152850.31
2022-09-26T08:45:48.079Z,152859.34
2022-09-26T08:48:28.423Z,152868.41
2022-09-26T08:51:01.391Z,152864.53
2022-09-26T08:53:34.806Z,152873.56
2022-09-26T08:56:11.721Z,152885.22
2022-09-26T08:58:44.050Z,152819.28
2022-09-26T09:01:24.741Z,152824.47
2022-09-26T09:03:57.082Z,152805.00
2022-09-26T09:06:28.268Z,152811.56
2022-09-26T09:08:57.953Z,152772.72
2022-09-26T09:11:43.081Z,152740.44
2022-09-26T09:14:16.949Z,152777.91
2022-09-26T09:16:55.939Z,152752.06
2022-09-26T09:19:32.928Z,152759.81
2022-09-26T09:22:17.440Z,152746.88
2022-09-26T09:24:58.215Z,152784.34
2022-09-26T09:28:00.129Z,152785.66
2022-09-26T09:30:37.936Z,152779.16
2022-09-26T09:33:13.168Z,152743.00
2022-09-26T09:35:46.207Z,152752.06
2022-09-26T09:38:18.790Z,152709.41
2022-09-26T09:40:53.029Z,152697.78
2022-09-26T09:43:28.601Z,152675.84
2022-09-26T09:46:02.780Z,152677.13
2022-09-26T09:48:31.401Z,152717.16
2022-09-26T09:51:10.570Z,152749.47
2022-09-26T09:53:53.021Z,152741.69
2022-09-26T09:56:31.912Z,152750.78
2022-09-26T09:59:15.707Z,152767.53
2022-09-26T10:01:46.739Z,152757.22
2022-09-26T10:04:32.717Z,152759.81
2022-09-26T10:07:01.995Z,152807.59
2022-09-26T10:09:35.944Z,152803.75
2022-09-26T10:12:14.204Z,152841.28
2022-09-26T10:14:48.619Z,152842.53
2022-09-26T10:17:20.415Z,152806.34
2022-09-26T10:19:48.731Z,152869.72
2022-09-26T10:22:25.995Z,152867.13
2022-09-26T10:25:01.566Z,152872.31
2022-09-26T10:27:36.945Z,152887.78
2022-09-26T10:30:21.286Z,152845.13
2022-09-26T10:32:56.279Z,152859.34
2022-09-26T10:35:25.912Z,152896.84
2022-09-26T10:38:01.205Z,152923.97
2022-09-26T10:40:48.420Z,152889.06
2022-09-26T10:43:30.509Z,152927.88
2022-09-26T10:46:05.528Z,152926.56
2022-09-26T10:48:48.175Z,152925.28
2022-09-26T10:51:24.282Z,152942.09
2022-09-26T10:54:08.331Z,152920.09
2022-09-26T10:56:39.898Z,152925.28
2022-09-26T10:59:10.615Z,152935.59
2022-09-26T11:01:44.071Z,152956.31
2022-09-26T11:04:36.039Z,152961.47
2022-09-26T11:07:06.680Z,152993.78
2022-09-26T11:09:35.890Z,153006.72
2022-09-26T11:12:23.779Z,153039.03
2022-09-26T11:14:56.994Z,153070.09
2022-09-26T11:17:44.494Z,153086.91
2022-09-26T11:20:19.147Z,153116.66
2022-09-26T11:22:54.439Z,153124.44
2022-09-26T11:25:26.931Z,153098.56
2022-09-26T11:28:01.247Z,153115.31
2022-09-26T11:30:31.300Z,153092.06
2022-09-26T11:33:05.469Z,153142.53
2022-09-26T11:35:46.720Z,153207.19
2022-09-26T11:38:28.719Z,153255.13
2022-09-26T11:41:12.142Z,153236.97
2022-09-26T11:43:50.347Z,153249.94
2022-09-26T11:46:38.438Z,153293.91
2022-09-26T11:49:32.904Z,153337.91
2022-09-26T11:52:17.711Z,153367.66
2022-09-26T11:54:58.704Z,153301.69
2022-09-26T11:57:38.992Z,153330.19
2022-09-26T12:00:16.240Z,153359.94
2022-09-26T12:03:15.755Z,153394.88
2022-09-26T12:05:54.283Z,153335.31
2022-09-26T12:08:38.396Z,153383.22
2022-09-26T12:11:17.259Z,153400.06
2022-09-26T12:13:55.641Z,153383.22
2022-09-26T12:16:31.295Z,153376.78
2022-09-26T12:19:06.185Z,153375.44
2022-09-26T12:22:05.908Z,153344.38
2022-09-26T12:24:41.384Z,153390.97
2022-09-26T12:27:20.515Z,153349.56
2022-09-26T12:29:59.114Z,153336.66
2022-09-26T12:32:51.882Z,153340.50
2022-09-26T12:35:34.267Z,153290.06
2022-09-26T12:38:26.512Z,153265.44
2022-09-26T12:41:04.801Z,153247.34
2022-09-26T12:44:14.020Z,153212.41
2022-09-26T12:47:02.556Z,153236.97
2022-09-26T12:49:42.910Z,153227.94
2022-09-26T12:52:27.312Z,153268.03
2022-09-26T12:55:09.666Z,153265.44
2022-09-26T12:57:52.965Z,153212.41
2022-09-26T13:00:23.058Z,153178.72
2022-09-26T13:03:11.738Z,153190.34
2022-09-26T13:06:13.320Z,153233.09
2022-09-26T13:08:59.038Z,153217.59
2022-09-26T13:11:37.138Z,153181.31
2022-09-26T13:14:31.108Z,153247.34
2022-09-26T13:17:10.516Z,153215.00
2022-09-26T13:19:44.604Z,153233.09
2022-09-26T13:22:27.764Z,153235.69
2022-09-26T13:25:01.232Z,153208.50
2022-09-26T13:27:36.261Z,153185.22
2022-09-26T13:30:08.214Z,153225.31
2022-09-26T13:32:48.692Z,153195.53
2022-09-26T13:35:21.660Z,153209.81
2022-09-26T13:38:06.164Z,153261.59
2022-09-26T13:40:42.580Z,153234.38
2022-09-26T13:43:26.112Z,153240.88
2022-09-26T13:46:01.240Z,153271.91
2022-09-26T13:48:46.462Z,153249.94
2022-09-26T13:51:22.002Z,153262.84
2022-09-26T13:54:00.068Z,153215.00
2022-09-26T13:56:47.850Z,153212.41
2022-09-26T13:59:51.899Z,153225.31
2022-09-26T14:02:28.458Z,153186.50
2022-09-26T14:05:47.833Z,153213.69
2022-09-26T14:08:50.576Z,153189.09
2022-09-26T14:11:27.830Z,153158.03
2022-09-26T14:14:25.254Z,153120.50
2022-09-26T14:16:54.676Z,153125.69
2022-09-26T14:19:32.292Z,153108.88
2022-09-26T14:22:02.694Z,153080.41
2022-09-26T14:24:34.786Z,153089.47
2022-09-26T14:27:28.664Z,153095.97
2022-09-26T14:30:01.789Z,153103.69
2022-09-26T14:32:36.992Z,153125.69
2022-09-26T14:35:18.894Z,153125.69
2022-09-26T14:37:50.122Z,153088.19
2022-09-26T14:40:26.396Z,153121.81
2022-09-26T14:43:00.643Z,153121.81
2022-09-26T14:45:45.433Z,153129.56
2022-09-26T14:48:20.681Z,153080.41
2022-09-26T14:50:54.323Z,153028.72
2022-09-26T14:53:25.899Z,153044.22
2022-09-26T14:55:58.417Z,152988.63
2022-09-26T14:58:46.143Z,153018.38
2022-09-26T15:01:19.403Z,153046.81
2022-09-26T15:04:03.682Z,153053.28
2022-09-26T15:06:40.348Z,153071.38
2022-09-26T15:09:13.742Z,153058.47
2022-09-26T15:11:46.457Z,153023.53
2022-09-26T15:14:27.196Z,153039.03
2022-09-26T15:16:56.933Z,152983.47
2022-09-26T15:19:29.543Z,152983.47
2022-09-26T15:22:02.029Z,152964.03
2022-09-26T15:24:33.286Z,152971.81
2022-09-26T15:27:08.974Z,152982.13
2022-09-26T15:29:38.091Z,152996.38
2022-09-26T15:32:06.885Z,152951.16
2022-09-26T15:34:37.306Z,152965.38
2022-09-26T15:37:18.766Z,152933.00
2022-09-26T15:39:46.970Z,152960.19
2022-09-26T15:42:48.228Z,152966.63
2022-09-26T15:45:30.069Z,152923.97
2022-09-26T15:48:00.113Z,152933.00
2022-09-26T15:50:33.401Z,152882.63
2022-09-26T15:53:08.216Z,152868.41
2022-09-26T15:55:40.899Z,152911.06
2022-09-26T15:58:13.208Z,152860.66
2022-09-26T16:00:44.351Z,152861.94
2022-09-26T16:03:38.938Z,152870.97
2022-09-26T16:06:21.388Z,152845.13
2022-09-26T16:08:55.692Z,152860.66
2022-09-26T16:11:24.495Z,152856.75
2022-09-26T16:13:54.006Z,152867.13
2022-09-26T16:16:29.844Z,152865.81
2022-09-26T16:19:00.542Z,152858.09
2022-09-26T16:21:32.144Z,152876.16
2022-09-26T16:24:23.316Z,152898.09
2022-09-26T16:26:53.482Z,152858.09
2022-09-26T16:29:34.101Z,152823.19
2022-09-26T16:32:03.310Z,152842.53
2022-09-26T16:34:31.944Z,152850.31
2022-09-26T16:37:00.033Z,152832.22
2022-09-26T16:39:31.287Z,152861.94
2022-09-26T16:42:03.446Z,152868.41
2022-09-26T16:44:36.390Z,152832.22
2022-09-26T16:47:08.943Z,152815.41
2022-09-26T16:49:46.850Z,152821.88
2022-09-26T16:52:31.138Z,152814.09
2022-09-26T16:55:02.237Z,152790.78
2022-09-26T16:57:31.934Z,152766.28
2022-09-26T17:00:19.757Z,152768.84
2022-09-26T17:02:47.899Z,152795.97
2022-09-26T17:05:18.490Z,152767.53
2022-09-26T17:07:47.643Z,152781.75
2022-09-26T17:10:18.276Z,152783.06
2022-09-26T17:12:50.754Z,152797.28
2022-09-26T17:15:23.102Z,152788.25
2022-09-26T17:17:53.768Z,152735.25
2022-09-26T17:20:23.656Z,152771.44
2022-09-26T17:22:52.034Z,152718.44
2022-09-26T17:25:24.923Z,152770.13
2022-09-26T17:27:57.661Z,152757.22
2022-09-26T17:30:25.574Z,152752.06
2022-09-26T17:32:54.497Z,152783.06
2022-09-26T17:35:26.353Z,152777.91
2022-09-26T17:37:55.221Z,152692.59
2022-09-26T17:40:27.055Z,152777.91
2022-09-26T17:42:57.369Z,152783.06
2022-09-26T17:45:29.439Z,152736.56
2022-09-26T17:47:59.615Z,152767.53
2022-09-26T17:50:31.311Z,152754.63
2022-09-26T17:53:01.061Z,152723.63
2022-09-26T17:55:31.413Z,152700.38
2022-09-26T17:57:59.848Z,152757.22
2022-09-26T18:00:32.071Z,152728.78
2022-09-26T18:03:04.421Z,152696.50
2022-09-26T18:05:35.072Z,152762.41
2022-09-26T18:08:10.313Z,152736.56
2022-09-26T18:10:45.146Z,152671.94
2022-09-26T18:13:15.510Z,152697.78
2022-09-26T18:15:43.602Z,152693.91
2022-09-26T18:18:14.410Z,152687.47
2022-09-26T18:20:42.613Z,152723.63
2022-09-26T18:23:16.099Z,152721.03
2022-09-26T18:25:47.442Z,152724.94
2022-09-26T18:28:19.982Z,152715.91
2022-09-26T18:30:51.545Z,152664.22
2022-09-26T18:33:24.275Z,152708.13
2022-09-26T18:35:53.230Z,152684.88
2022-09-26T18:38:22.107Z,152718.44
2022-09-26T18:40:55.767Z,152739.16
2022-09-26T18:43:25.855Z,152701.69
2022-09-26T18:45:53.940Z,152687.47
2022-09-26T18:48:25.182Z,152666.81
2022-09-26T18:50:53.563Z,152684.88
2022-09-26T18:53:23.232Z,152677.13
2022-09-26T18:56:09.780Z,152669.34
2022-09-26T18:58:39.224Z,152671.94
2022-09-26T19:01:09.557Z,152678.44
2022-09-26T19:03:40.231Z,152661.63
2022-09-26T19:06:11.917Z,152653.88
2022-09-26T19:08:42.904Z,152653.88
2022-09-26T19:11:18.948Z,152662.91
2022-09-26T19:13:48.989Z,152674.53
2022-09-26T19:16:17.834Z,152665.50
2022-09-26T19:18:46.500Z,152652.59
2022-09-26T19:21:24.234Z,152679.72
2022-09-26T19:23:52.949Z,152660.31
2022-09-26T19:26:28.399Z,152664.22
2022-09-26T19:28:57.851Z,152671.94
2022-09-26T19:31:26.156Z,152669.34
2022-09-26T19:33:54.494Z,152683.56
2022-09-26T19:36:22.500Z,152628.03
2022-09-26T19:38:50.414Z,152617.72
2022-09-26T19:41:18.326Z,152662.91
2022-09-26T19:43:47.678Z,152674.53
2022-09-26T19:46:23.970Z,152669.34
2022-09-26T19:48:52.081Z,152684.88
2022-09-26T19:51:20.035Z,152659.03
2022-09-26T19:53:47.954Z,152673.25
2022-09-26T19:56:15.775Z,152657.72
2022-09-26T19:58:46.328Z,152682.28
2022-09-26T20:01:19.332Z,152702.94
2022-09-26T20:03:47.777Z,152705.53
2022-09-26T20:06:18.391Z,152693.91
2022-09-26T20:08:46.601Z,152709.41
2022-09-26T20:11:14.630Z,152708.13
2022-09-26T20:13:59.770Z,152675.84
2022-09-26T20:16:29.432Z,152670.66
2022-09-26T20:18:59.051Z,152683.56
2022-09-26T20:21:29.465Z,152657.72
2022-09-26T20:24:00.859Z,152700.38
2022-09-26T20:26:29.949Z,152688.75
2022-09-26T20:28:58.060Z,152674.53
2022-09-26T20:31:29.416Z,152709.41
2022-09-26T20:34:00.016Z,152691.31
2022-09-26T20:36:32.029Z,152686.16
2022-09-26T20:39:03.359Z,152701.69
2022-09-26T20:41:34.097Z,152697.78
2022-09-26T20:44:06.091Z,152692.59
2022-09-26T20:46:39.370Z,152680.97
2022-09-26T20:49:12.518Z,152691.31
2022-09-26T20:51:40.483Z,152678.44
2022-09-26T20:54:26.600Z,152671.94
2022-09-26T20:56:55.052Z,152690.06
2022-09-26T20:59:23.772Z,152700.38
2022-09-26T21:01:55.212Z,152714.59
2022-09-26T21:04:31.489Z,152686.16
2022-09-26T21:06:59.722Z,152726.22
2022-09-26T21:09:27.656Z,152721.03
2022-09-26T21:11:55.583Z,152700.38
2022-09-26T21:14:23.441Z,152680.97
2022-09-26T21:16:54.814Z,152712.00
2022-09-26T21:19:25.274Z,152706.81
2022-09-26T21:21:53.389Z,152683.56
2022-09-26T21:24:30.050Z,152666.81
2022-09-26T21:26:58.186Z,152656.44
2022-09-26T21:29:25.987Z,152671.94
2022-09-26T21:31:58.477Z,152680.97
2022-09-26T21:34:28.725Z,152697.78
2022-09-26T21:36:59.518Z,152682.28
2022-09-26T21:39:30.000Z,152687.47
2022-09-26T21:42:00.967Z,152682.28
2022-09-26T21:44:34.194Z,152648.69
2022-09-26T21:47:03.517Z,152682.28
2022-09-26T21:49:31.679Z,152686.16
2022-09-26T21:52:04.271Z,152652.59
2022-09-26T21:54:37.274Z,152665.50
2022-09-26T21:57:08.654Z,152650.00
2022-09-26T21:59:40.090Z,152709.41
2022-09-26T22:02:09.470Z,152677.13
2022-09-26T22:04:37.504Z,152666.81
2022-09-26T22:07:05.469Z,152664.22
2022-09-26T22:09:33.400Z,152671.94
2022-09-26T22:12:01.471Z,152701.69
2022-09-26T22:14:29.395Z,152680.97
2022-09-26T22:16:57.627Z,152702.94
2022-09-26T22:19:27.607Z,152666.81
2022-09-26T22:21:55.828Z,152684.88
2022-09-26T22:24:23.840Z,152714.59
2022-09-26T22:26:51.845Z,152677.13
2022-09-26T22:29:19.815Z,152696.50
2022-09-26T22:31:47.648Z,152688.75
2022-09-26T22:34:15.794Z,152700.38
2022-09-26T22:36:45.071Z,152710.72
2022-09-26T22:39:13.025Z,152721.03
2022-09-26T22:41:40.905Z,152736.56
2022-09-26T22:44:09.411Z,152739.16
2022-09-26T22:46:38.233Z,152749.47
2022-09-26T22:49:06.439Z,152762.41
2022-09-26T22:51:34.464Z,152728.78
2022-09-26T22:54:04.223Z,152753.31
2022-09-26T22:56:32.061Z,152753.31
2022-09-26T22:58:59.970Z,152752.06
2022-09-26T23:01:29.168Z,152740.44
2022-09-26T23:03:58.720Z,152746.88
2022-09-26T23:06:27.607Z,152727.53
2022-09-26T23:08:55.678Z,152688.75
2022-09-26T23:11:25.252Z,152708.13
2022-09-26T23:13:54.027Z,152731.38
2022-09-26T23:16:23.906Z,152721.03
2022-09-26T23:18:52.672Z,152693.91
2022-09-26T23:21:22.662Z,152706.81
2022-09-26T23:23:52.457Z,152701.69
2022-09-26T23:26:23.363Z,152706.81
2022-09-26T23:28:54.271Z,152675.84
2022-09-26T23:31:22.955Z,152653.88
2022-09-26T23:33:50.921Z,152655.19
2022-09-26T23:36:19.661Z,152660.31
2022-09-26T23:38:47.626Z,152669.34
2022-09-26T23:41:15.920Z,152669.34
2022-09-26T23:43:43.924Z,152602.19
2022-09-26T23:46:13.728Z,152608.63
2022-09-26T23:48:42.334Z,152639.66
2022-09-26T23:51:10.705Z,152646.09
2022-09-26T23:53:38.470Z,152625.44
2022-09-26T23:56:08.869Z,152648.69
2022-09-26T23:58:37.429Z,152629.34
